sensor_id;sensor_type;location;lat;lon;timestamp;temperature;humidity
64689;DHT22;62504;46.070;14.492;2023-01-19T00:02:24;3.60;99.90
64689;DHT22;62504;46.070;14.492;2023-01-19T00:04:50;3.60;99.90
64689;DHT22;62504;46.070;14.492;2023-01-19T00:07:16;3.70;99.90
64689;DHT22;62504;46.070;14.492;2023-01-19T00:09:41;3.60;99.90
64689;DHT22;62504;46.070;14.492;2023-01-19T00:12:07;3.50;99.90
64689;DHT22;62504;46.070;14.492;2023-01-19T00:14:33;3.50;99.90
64689;DHT22;62504;46.070;14.492;2023-01-19T00:16:59;3.40;99.90
64689;DHT22;62504;46.070;14.492;2023-01-19T00:19:26;3.50;99.90
64689;DHT22;62504;46.070;14.492;2023-01-19T00:21:52;3.50;99.90
64689;DHT22;62504;46.070;14.492;2023-01-19T00:24:17;3.50;99.90
64689;DHT22;62504;46.070;14.492;2023-01-19T00:26:43;3.60;99.90
64689;DHT22;62504;46.070;14.492;2023-01-19T00:29:10;3.50;99.90
64689;DHT22;62504;46.070;14.492;2023-01-19T00:31:36;3.50;99.90
64689;DHT22;62504;46.070;14.492;2023-01-19T00:34:02;3.60;99.90
64689;DHT22;62504;46.070;14.492;2023-01-19T00:36:28;3.60;99.90
64689;DHT22;62504;46.070;14.492;2023-01-19T00:38:53;3.60;99.90
64689;DHT22;62504;46.070;14.492;2023-01-19T00:41:19;3.60;99.90
64689;DHT22;62504;46.070;14.492;2023-01-19T00:44:05;3.60;99.90
64689;DHT22;62504;46.070;14.492;2023-01-19T00:46:32;3.50;99.90
64689;DHT22;62504;46.070;14.492;2023-01-19T00:48:58;3.50;99.90
64689;DHT22;62504;46.070;14.492;2023-01-19T00:51:23;3.50;99.90
64689;DHT22;62504;46.070;14.492;2023-01-19T00:53:49;3.30;99.90
64689;DHT22;62504;46.070;14.492;2023-01-19T00:56:15;3.50;99.90
64689;DHT22;62504;46.070;14.492;2023-01-19T00:58:42;3.50;99.90
64689;DHT22;62504;46.070;14.492;2023-01-19T01:01:09;3.60;99.90
64689;DHT22;62504;46.070;14.492;2023-01-19T01:03:35;3.60;99.90
64689;DHT22;62504;46.070;14.492;2023-01-19T01:06:01;3.30;99.90
64689;DHT22;62504;46.070;14.492;2023-01-19T01:08:28;3.30;99.90
64689;DHT22;62504;46.070;14.492;2023-01-19T01:10:54;3.40;99.90
64689;DHT22;62504;46.070;14.492;2023-01-19T01:13:20;3.60;99.90
64689;DHT22;62504;46.070;14.492;2023-01-19T01:15:49;3.60;99.90
64689;DHT22;62504;46.070;14.492;2023-01-19T01:18:15;3.70;99.90
64689;DHT22;62504;46.070;14.492;2023-01-19T01:20:41;3.80;99.90
64689;DHT22;62504;46.070;14.492;2023-01-19T01:23:06;3.60;99.90
64689;DHT22;62504;46.070;14.492;2023-01-19T01:25:32;3.60;99.90
64689;DHT22;62504;46.070;14.492;2023-01-19T01:28:02;3.60;99.90
64689;DHT22;62504;46.070;14.492;2023-01-19T01:30:29;3.60;99.90
64689;DHT22;62504;46.070;14.492;2023-01-19T01:32:55;3.60;99.90
64689;DHT22;62504;46.070;14.492;2023-01-19T01:35:21;3.60;99.90
64689;DHT22;62504;46.070;14.492;2023-01-19T01:37:46;3.60;99.90
64689;DHT22;62504;46.070;14.492;2023-01-19T01:40:14;3.60;99.90
64689;DHT22;62504;46.070;14.492;2023-01-19T01:42:41;3.60;99.90
64689;DHT22;62504;46.070;14.492;2023-01-19T01:45:32;3.40;99.90
64689;DHT22;62504;46.070;14.492;2023-01-19T01:48:17;3.30;99.90
64689;DHT22;62504;46.070;14.492;2023-01-19T01:50:56;3.40;99.90
64689;DHT22;62504;46.070;14.492;2023-01-19T01:53:44;3.40;99.90
64689;DHT22;62504;46.070;14.492;2023-01-19T01:56:16;3.50;99.90
64689;DHT22;62504;46.070;14.492;2023-01-19T01:58:44;3.50;99.90
64689;DHT22;62504;46.070;14.492;2023-01-19T02:01:10;3.60;99.90
64689;DHT22;62504;46.070;14.492;2023-01-19T02:03:54;3.50;99.90
64689;DHT22;62504;46.070;14.492;2023-01-19T02:06:20;3.50;99.90
64689;DHT22;62504;46.070;14.492;2023-01-19T02:08:51;3.50;99.90
64689;DHT22;62504;46.070;14.492;2023-01-19T02:11:36;3.50;99.90
64689;DHT22;62504;46.070;14.492;2023-01-19T02:14:21;3.20;99.90
64689;DHT22;62504;46.070;14.492;2023-01-19T02:16:47;3.10;99.90
64689;DHT22;62504;46.070;14.492;2023-01-19T02:19:16;3.20;99.90
64689;DHT22;62504;46.070;14.492;2023-01-19T02:22:03;3.10;99.90
64689;DHT22;62504;46.070;14.492;2023-01-19T02:24:31;3.20;99.90
64689;DHT22;62504;46.070;14.492;2023-01-19T02:26:58;3.20;99.90
64689;DHT22;62504;46.070;14.492;2023-01-19T02:29:25;3.30;99.90
64689;DHT22;62504;46.070;14.492;2023-01-19T02:31:51;3.30;99.90
64689;DHT22;62504;46.070;14.492;2023-01-19T02:34:19;3.50;99.90
64689;DHT22;62504;46.070;14.492;2023-01-19T02:36:58;3.50;99.90
64689;DHT22;62504;46.070;14.492;2023-01-19T02:39:29;3.50;99.90
64689;DHT22;62504;46.070;14.492;2023-01-19T02:42:01;3.50;99.90
64689;DHT22;62504;46.070;14.492;2023-01-19T02:44:28;3.60;99.90
64689;DHT22;62504;46.070;14.492;2023-01-19T02:46:55;3.60;99.90
64689;DHT22;62504;46.070;14.492;2023-01-19T02:49:20;3.60;99.90
64689;DHT22;62504;46.070;14.492;2023-01-19T02:51:46;3.60;99.90
64689;DHT22;62504;46.070;14.492;2023-01-19T03:08:43;3.60;99.90
64689;DHT22;62504;46.070;14.492;2023-01-19T03:11:12;3.60;99.90
64689;DHT22;62504;46.070;14.492;2023-01-19T03:19:13;3.50;99.90
64689;DHT22;62504;46.070;14.492;2023-01-19T03:21:45;3.50;99.90
64689;DHT22;62504;46.070;14.492;2023-01-19T03:24:12;3.50;99.90
64689;DHT22;62504;46.070;14.492;2023-01-19T03:26:48;3.60;99.90
64689;DHT22;62504;46.070;14.492;2023-01-19T03:29:17;3.50;99.90
64689;DHT22;62504;46.070;14.492;2023-01-19T03:31:46;3.50;99.90
64689;DHT22;62504;46.070;14.492;2023-01-19T03:34:14;3.40;99.90
64689;DHT22;62504;46.070;14.492;2023-01-19T03:36:46;3.40;99.90
64689;DHT22;62504;46.070;14.492;2023-01-19T03:39:17;3.50;99.90
64689;DHT22;62504;46.070;14.492;2023-01-19T03:41:47;3.50;99.90
64689;DHT22;62504;46.070;14.492;2023-01-19T03:44:13;3.50;99.90
64689;DHT22;62504;46.070;14.492;2023-01-19T03:46:39;3.50;99.90
64689;DHT22;62504;46.070;14.492;2023-01-19T03:49:05;3.50;99.90
64689;DHT22;62504;46.070;14.492;2023-01-19T03:51:35;3.50;99.90
64689;DHT22;62504;46.070;14.492;2023-01-19T03:54:01;3.50;99.90
64689;DHT22;62504;46.070;14.492;2023-01-19T03:56:26;3.40;99.90
64689;DHT22;62504;46.070;14.492;2023-01-19T03:58:52;3.20;99.90
64689;DHT22;62504;46.070;14.492;2023-01-19T04:01:18;3.30;99.90
64689;DHT22;62504;46.070;14.492;2023-01-19T04:03:48;3.40;99.90
64689;DHT22;62504;46.070;14.492;2023-01-19T04:06:15;3.40;99.90
64689;DHT22;62504;46.070;14.492;2023-01-19T04:08:40;3.50;99.90
64689;DHT22;62504;46.070;14.492;2023-01-19T04:11:06;3.50;99.90
64689;DHT22;62504;46.070;14.492;2023-01-19T04:13:33;3.50;99.90
64689;DHT22;62504;46.070;14.492;2023-01-19T04:16:02;3.50;99.90
64689;DHT22;62504;46.070;14.492;2023-01-19T04:18:29;3.50;99.90
64689;DHT22;62504;46.070;14.492;2023-01-19T04:20:59;3.50;99.90
64689;DHT22;62504;46.070;14.492;2023-01-19T04:23:25;3.50;99.90
64689;DHT22;62504;46.070;14.492;2023-01-19T04:26:00;3.60;99.90
64689;DHT22;62504;46.070;14.492;2023-01-19T04:28:26;3.50;99.90
64689;DHT22;62504;46.070;14.492;2023-01-19T04:30:51;3.60;99.90
64689;DHT22;62504;46.070;14.492;2023-01-19T04:33:18;3.50;99.90
64689;DHT22;62504;46.070;14.492;2023-01-19T04:35:46;3.50;99.90
64689;DHT22;62504;46.070;14.492;2023-01-19T04:38:12;3.50;99.90
64689;DHT22;62504;46.070;14.492;2023-01-19T04:40:38;3.50;99.90
64689;DHT22;62504;46.070;14.492;2023-01-19T04:43:03;3.50;99.90
64689;DHT22;62504;46.070;14.492;2023-01-19T04:45:29;3.40;99.90
64689;DHT22;62504;46.070;14.492;2023-01-19T04:47:54;3.40;99.90
64689;DHT22;62504;46.070;14.492;2023-01-19T04:50:20;3.40;99.90
64689;DHT22;62504;46.070;14.492;2023-01-19T04:52:46;3.40;99.90
64689;DHT22;62504;46.070;14.492;2023-01-19T04:55:12;3.40;99.90
64689;DHT22;62504;46.070;14.492;2023-01-19T04:57:38;3.40;99.90
64689;DHT22;62504;46.070;14.492;2023-01-19T05:00:04;3.40;99.90
64689;DHT22;62504;46.070;14.492;2023-01-19T05:02:33;3.40;99.90
64689;DHT22;62504;46.070;14.492;2023-01-19T05:04:59;3.40;99.90
64689;DHT22;62504;46.070;14.492;2023-01-19T05:07:25;3.30;99.90
64689;DHT22;62504;46.070;14.492;2023-01-19T05:09:50;3.20;99.90
64689;DHT22;62504;46.070;14.492;2023-01-19T05:12:16;3.20;99.90
64689;DHT22;62504;46.070;14.492;2023-01-19T05:14:42;3.30;99.90
64689;DHT22;62504;46.070;14.492;2023-01-19T05:17:08;3.20;99.90
64689;DHT22;62504;46.070;14.492;2023-01-19T05:19:34;3.30;99.90
64689;DHT22;62504;46.070;14.492;2023-01-19T05:22:02;3.30;99.90
64689;DHT22;62504;46.070;14.492;2023-01-19T05:24:28;3.30;99.90
64689;DHT22;62504;46.070;14.492;2023-01-19T05:26:53;3.30;99.90
64689;DHT22;62504;46.070;14.492;2023-01-19T05:29:19;3.40;99.90
64689;DHT22;62504;46.070;14.492;2023-01-19T05:31:45;3.40;99.90
64689;DHT22;62504;46.070;14.492;2023-01-19T05:34:11;3.30;99.90
64689;DHT22;62504;46.070;14.492;2023-01-19T05:36:37;3.20;99.90
64689;DHT22;62504;46.070;14.492;2023-01-19T05:39:03;3.20;99.90
64689;DHT22;62504;46.070;14.492;2023-01-19T05:41:28;3.20;99.90
64689;DHT22;62504;46.070;14.492;2023-01-19T05:43:55;3.30;99.90
64689;DHT22;62504;46.070;14.492;2023-01-19T05:46:20;3.30;99.90
64689;DHT22;62504;46.070;14.492;2023-01-19T05:48:46;3.20;99.90
64689;DHT22;62504;46.070;14.492;2023-01-19T05:51:11;3.20;99.90
64689;DHT22;62504;46.070;14.492;2023-01-19T05:53:37;3.10;99.90
64689;DHT22;62504;46.070;14.492;2023-01-19T05:56:04;3.00;99.90
64689;DHT22;62504;46.070;14.492;2023-01-19T05:58:31;3.20;99.90
64689;DHT22;62504;46.070;14.492;2023-01-19T06:01:01;3.20;99.90
64689;DHT22;62504;46.070;14.492;2023-01-19T06:03:33;3.10;99.90
64689;DHT22;62504;46.070;14.492;2023-01-19T06:05:59;3.10;99.90
64689;DHT22;62504;46.070;14.492;2023-01-19T06:08:26;3.20;99.90
64689;DHT22;62504;46.070;14.492;2023-01-19T06:10:52;3.10;99.90
64689;DHT22;62504;46.070;14.492;2023-01-19T06:13:18;3.10;99.90
64689;DHT22;62504;46.070;14.492;2023-01-19T06:15:43;3.10;99.90
64689;DHT22;62504;46.070;14.492;2023-01-19T06:18:12;3.20;99.90
64689;DHT22;62504;46.070;14.492;2023-01-19T06:20:41;3.10;99.90
64689;DHT22;62504;46.070;14.492;2023-01-19T06:23:06;3.00;99.90
64689;DHT22;62504;46.070;14.492;2023-01-19T06:25:32;3.10;99.90
64689;DHT22;62504;46.070;14.492;2023-01-19T06:27:58;3.20;99.90
64689;DHT22;62504;46.070;14.492;2023-01-19T06:30:24;3.10;99.90
64689;DHT22;62504;46.070;14.492;2023-01-19T06:32:49;3.10;99.90
64689;DHT22;62504;46.070;14.492;2023-01-19T06:35:15;3.10;99.90
64689;DHT22;62504;46.070;14.492;2023-01-19T06:37:41;3.10;99.90
64689;DHT22;62504;46.070;14.492;2023-01-19T06:40:07;3.10;99.90
64689;DHT22;62504;46.070;14.492;2023-01-19T06:42:32;3.20;99.90
64689;DHT22;62504;46.070;14.492;2023-01-19T06:44:58;3.10;99.90
64689;DHT22;62504;46.070;14.492;2023-01-19T06:47:24;3.10;99.90
64689;DHT22;62504;46.070;14.492;2023-01-19T06:49:49;3.20;99.90
64689;DHT22;62504;46.070;14.492;2023-01-19T06:52:15;3.20;99.90
64689;DHT22;62504;46.070;14.492;2023-01-19T06:54:45;3.20;99.90
64689;DHT22;62504;46.070;14.492;2023-01-19T06:57:11;3.00;99.90
64689;DHT22;62504;46.070;14.492;2023-01-19T06:59:37;3.00;99.90
64689;DHT22;62504;46.070;14.492;2023-01-19T07:02:03;2.90;99.90
64689;DHT22;62504;46.070;14.492;2023-01-19T07:04:29;2.80;99.90
64689;DHT22;62504;46.070;14.492;2023-01-19T07:06:55;2.80;99.90
64689;DHT22;62504;46.070;14.492;2023-01-19T07:09:21;2.70;99.90
64689;DHT22;62504;46.070;14.492;2023-01-19T07:11:47;2.90;99.90
64689;DHT22;62504;46.070;14.492;2023-01-19T07:14:13;3.00;99.90
64689;DHT22;62504;46.070;14.492;2023-01-19T07:16:38;3.00;99.90
64689;DHT22;62504;46.070;14.492;2023-01-19T07:19:04;2.90;99.90
64689;DHT22;62504;46.070;14.492;2023-01-19T07:21:30;2.70;99.90
64689;DHT22;62504;46.070;14.492;2023-01-19T07:23:56;2.60;99.90
64689;DHT22;62504;46.070;14.492;2023-01-19T07:26:22;2.70;99.90
64689;DHT22;62504;46.070;14.492;2023-01-19T07:28:50;2.70;99.90
64689;DHT22;62504;46.070;14.492;2023-01-19T07:31:17;2.60;99.90
64689;DHT22;62504;46.070;14.492;2023-01-19T07:33:43;2.70;99.90
64689;DHT22;62504;46.070;14.492;2023-01-19T07:36:09;2.90;99.90
64689;DHT22;62504;46.070;14.492;2023-01-19T07:38:35;2.80;99.90
64689;DHT22;62504;46.070;14.492;2023-01-19T07:41:05;2.80;99.90
64689;DHT22;62504;46.070;14.492;2023-01-19T07:43:31;3.00;99.90
64689;DHT22;62504;46.070;14.492;2023-01-19T07:45:59;3.20;99.90
64689;DHT22;62504;46.070;14.492;2023-01-19T07:48:25;3.20;99.90
64689;DHT22;62504;46.070;14.492;2023-01-19T07:50:50;3.20;99.90
64689;DHT22;62504;46.070;14.492;2023-01-19T07:53:16;3.20;99.90
64689;DHT22;62504;46.070;14.492;2023-01-19T07:55:42;3.40;99.90
64689;DHT22;62504;46.070;14.492;2023-01-19T07:58:08;3.30;99.90
64689;DHT22;62504;46.070;14.492;2023-01-19T08:00:35;3.40;99.90
64689;DHT22;62504;46.070;14.492;2023-01-19T08:03:02;3.30;99.90
64689;DHT22;62504;46.070;14.492;2023-01-19T08:05:28;3.10;99.90
64689;DHT22;62504;46.070;14.492;2023-01-19T08:07:55;3.10;99.90
64689;DHT22;62504;46.070;14.492;2023-01-19T08:10:26;3.00;99.90
64689;DHT22;62504;46.070;14.492;2023-01-19T08:12:53;2.80;99.90
64689;DHT22;62504;46.070;14.492;2023-01-19T08:15:18;3.00;99.90
64689;DHT22;62504;46.070;14.492;2023-01-19T08:17:56;3.10;99.90
64689;DHT22;62504;46.070;14.492;2023-01-19T08:20:23;3.10;99.90
64689;DHT22;62504;46.070;14.492;2023-01-19T08:22:48;3.10;99.90
64689;DHT22;62504;46.070;14.492;2023-01-19T08:25:14;3.10;99.90
64689;DHT22;62504;46.070;14.492;2023-01-19T08:27:40;2.90;99.90
64689;DHT22;62504;46.070;14.492;2023-01-19T08:30:06;2.80;99.90
64689;DHT22;62504;46.070;14.492;2023-01-19T08:32:32;3.00;99.90
64689;DHT22;62504;46.070;14.492;2023-01-19T08:34:57;2.90;99.90
64689;DHT22;62504;46.070;14.492;2023-01-19T08:37:23;3.00;99.90
64689;DHT22;62504;46.070;14.492;2023-01-19T08:39:49;3.00;99.90
64689;DHT22;62504;46.070;14.492;2023-01-19T08:42:14;3.00;99.90
64689;DHT22;62504;46.070;14.492;2023-01-19T08:44:40;3.00;99.90
64689;DHT22;62504;46.070;14.492;2023-01-19T08:47:05;3.00;99.90
64689;DHT22;62504;46.070;14.492;2023-01-19T08:49:32;2.90;99.90
64689;DHT22;62504;46.070;14.492;2023-01-19T08:51:58;3.00;99.90
64689;DHT22;62504;46.070;14.492;2023-01-19T08:54:24;3.00;99.90
64689;DHT22;62504;46.070;14.492;2023-01-19T08:56:49;2.90;99.90
64689;DHT22;62504;46.070;14.492;2023-01-19T08:59:15;2.90;99.90
64689;DHT22;62504;46.070;14.492;2023-01-19T09:01:41;3.00;99.90
64689;DHT22;62504;46.070;14.492;2023-01-19T09:04:07;3.00;99.90
64689;DHT22;62504;46.070;14.492;2023-01-19T09:06:32;3.00;99.90
64689;DHT22;62504;46.070;14.492;2023-01-19T09:08:58;3.00;99.90
64689;DHT22;62504;46.070;14.492;2023-01-19T09:11:24;3.00;99.90
64689;DHT22;62504;46.070;14.492;2023-01-19T09:13:51;3.00;99.90
64689;DHT22;62504;46.070;14.492;2023-01-19T09:16:17;3.00;99.90
64689;DHT22;62504;46.070;14.492;2023-01-19T09:18:42;3.00;99.90
64689;DHT22;62504;46.070;14.492;2023-01-19T09:21:10;3.00;99.90
64689;DHT22;62504;46.070;14.492;2023-01-19T09:23:36;3.00;99.90
64689;DHT22;62504;46.070;14.492;2023-01-19T09:26:03;2.90;99.90
64689;DHT22;62504;46.070;14.492;2023-01-19T09:28:29;3.00;99.90
64689;DHT22;62504;46.070;14.492;2023-01-19T09:30:55;3.10;99.90
64689;DHT22;62504;46.070;14.492;2023-01-19T09:33:21;3.10;99.90
64689;DHT22;62504;46.070;14.492;2023-01-19T09:35:48;3.10;99.90
64689;DHT22;62504;46.070;14.492;2023-01-19T09:38:14;3.00;99.90
64689;DHT22;62504;46.070;14.492;2023-01-19T09:40:43;3.10;99.90
64689;DHT22;62504;46.070;14.492;2023-01-19T09:46:00;3.10;99.90
64689;DHT22;62504;46.070;14.492;2023-01-19T09:48:45;3.20;99.90
64689;DHT22;62504;46.070;14.492;2023-01-19T09:51:18;3.10;99.90
64689;DHT22;62504;46.070;14.492;2023-01-19T09:54:02;3.00;99.90
64689;DHT22;62504;46.070;14.492;2023-01-19T09:56:30;3.10;99.90
64689;DHT22;62504;46.070;14.492;2023-01-19T09:58:57;3.10;99.90
64689;DHT22;62504;46.070;14.492;2023-01-19T10:01:37;3.10;99.90
64689;DHT22;62504;46.070;14.492;2023-01-19T10:06:59;3.40;99.90
64689;DHT22;62504;46.070;14.492;2023-01-19T10:15:38;3.80;99.90
64689;DHT22;62504;46.070;14.492;2023-01-19T10:20:35;3.80;99.90
64689;DHT22;62504;46.070;14.492;2023-01-19T10:23:09;3.70;99.90
64689;DHT22;62504;46.070;14.492;2023-01-19T10:25:41;3.60;99.90
64689;DHT22;62504;46.070;14.492;2023-01-19T10:28:07;3.70;99.90
64689;DHT22;62504;46.070;14.492;2023-01-19T10:30:35;3.70;99.90
64689;DHT22;62504;46.070;14.492;2023-01-19T10:33:01;3.60;99.90
64689;DHT22;62504;46.070;14.492;2023-01-19T10:35:28;3.60;99.90
64689;DHT22;62504;46.070;14.492;2023-01-19T10:37:57;3.70;99.90
64689;DHT22;62504;46.070;14.492;2023-01-19T10:40:40;3.50;99.90
64689;DHT22;62504;46.070;14.492;2023-01-19T10:43:47;3.60;99.90
64689;DHT22;62504;46.070;14.492;2023-01-19T10:46:36;3.70;99.90
64689;DHT22;62504;46.070;14.492;2023-01-19T10:49:03;3.50;99.90
64689;DHT22;62504;46.070;14.492;2023-01-19T10:51:29;3.70;99.90
64689;DHT22;62504;46.070;14.492;2023-01-19T10:54:00;3.50;99.90
64689;DHT22;62504;46.070;14.492;2023-01-19T10:56:33;3.60;99.90
64689;DHT22;62504;46.070;14.492;2023-01-19T10:59:02;3.50;99.90
64689;DHT22;62504;46.070;14.492;2023-01-19T11:01:29;3.70;99.90
64689;DHT22;62504;46.070;14.492;2023-01-19T11:03:56;3.80;99.90
64689;DHT22;62504;46.070;14.492;2023-01-19T11:06:30;4.00;99.90
64689;DHT22;62504;46.070;14.492;2023-01-19T11:09:12;4.10;99.90
64689;DHT22;62504;46.070;14.492;2023-01-19T11:11:42;4.00;99.90
64689;DHT22;62504;46.070;14.492;2023-01-19T11:14:12;4.10;99.90
64689;DHT22;62504;46.070;14.492;2023-01-19T11:16:38;4.20;99.90
64689;DHT22;62504;46.070;14.492;2023-01-19T11:19:04;4.20;99.90
64689;DHT22;62504;46.070;14.492;2023-01-19T11:21:39;4.30;99.90
64689;DHT22;62504;46.070;14.492;2023-01-19T11:24:08;4.40;99.90
64689;DHT22;62504;46.070;14.492;2023-01-19T11:29:03;4.40;99.90
64689;DHT22;62504;46.070;14.492;2023-01-19T11:31:32;4.30;99.90
64689;DHT22;62504;46.070;14.492;2023-01-19T11:34:04;4.20;99.90
64689;DHT22;62504;46.070;14.492;2023-01-19T11:36:36;4.20;99.90
64689;DHT22;62504;46.070;14.492;2023-01-19T11:39:23;4.10;99.90
64689;DHT22;62504;46.070;14.492;2023-01-19T11:41:52;4.10;99.90
64689;DHT22;62504;46.070;14.492;2023-01-19T11:44:26;4.10;99.90
64689;DHT22;62504;46.070;14.492;2023-01-19T11:46:56;4.00;99.90
64689;DHT22;62504;46.070;14.492;2023-01-19T11:55:02;4.00;99.90
64689;DHT22;62504;46.070;14.492;2023-01-19T11:57:29;3.90;99.90
64689;DHT22;62504;46.070;14.492;2023-01-19T12:00:02;3.90;99.90
64689;DHT22;62504;46.070;14.492;2023-01-19T12:02:42;3.90;99.90
64689;DHT22;62504;46.070;14.492;2023-01-19T12:05:13;3.90;99.90
64689;DHT22;62504;46.070;14.492;2023-01-19T12:07:41;4.10;99.90
64689;DHT22;62504;46.070;14.492;2023-01-19T12:10:23;4.00;99.90
64689;DHT22;62504;46.070;14.492;2023-01-19T12:12:51;3.90;99.90
64689;DHT22;62504;46.070;14.492;2023-01-19T12:17:52;3.60;99.90
64689;DHT22;62504;46.070;14.492;2023-01-19T12:28:40;3.90;99.90
64689;DHT22;62504;46.070;14.492;2023-01-19T12:31:07;3.90;99.90
64689;DHT22;62504;46.070;14.492;2023-01-19T12:33:39;3.90;99.90
64689;DHT22;62504;46.070;14.492;2023-01-19T12:46:54;4.10;99.90
64689;DHT22;62504;46.070;14.492;2023-01-19T13:00:39;3.80;99.90
64689;DHT22;62504;46.070;14.492;2023-01-19T13:18:50;4.10;99.90
64689;DHT22;62504;46.070;14.492;2023-01-19T13:24:03;3.70;99.90
64689;DHT22;62504;46.070;14.492;2023-01-19T13:26:34;3.70;99.90
64689;DHT22;62504;46.070;14.492;2023-01-19T13:31:39;3.80;99.90
64689;DHT22;62504;46.070;14.492;2023-01-19T13:34:12;3.90;99.90
64689;DHT22;62504;46.070;14.492;2023-01-19T13:36:45;4.00;99.90
64689;DHT22;62504;46.070;14.492;2023-01-19T13:39:35;3.90;99.90
64689;DHT22;62504;46.070;14.492;2023-01-19T13:42:05;4.20;99.90
64689;DHT22;62504;46.070;14.492;2023-01-19T13:44:41;4.20;99.90
64689;DHT22;62504;46.070;14.492;2023-01-19T13:47:14;4.00;99.90
64689;DHT22;62504;46.070;14.492;2023-01-19T13:49:43;3.80;99.90
64689;DHT22;62504;46.070;14.492;2023-01-19T13:52:25;3.60;99.90
64689;DHT22;62504;46.070;14.492;2023-01-19T14:05:26;4.20;99.90
64689;DHT22;62504;46.070;14.492;2023-01-19T14:13:23;4.20;99.90
64689;DHT22;62504;46.070;14.492;2023-01-19T14:15:51;4.30;99.90
64689;DHT22;62504;46.070;14.492;2023-01-19T14:21:06;3.80;99.90
64689;DHT22;62504;46.070;14.492;2023-01-19T14:29:30;3.70;99.90
64689;DHT22;62504;46.070;14.492;2023-01-19T14:32:19;3.80;99.90
64689;DHT22;62504;46.070;14.492;2023-01-19T14:37:36;3.40;99.90
64689;DHT22;62504;46.070;14.492;2023-01-19T14:42:59;3.40;99.90
64689;DHT22;62504;46.070;14.492;2023-01-19T14:45:33;3.10;99.90
64689;DHT22;62504;46.070;14.492;2023-01-19T14:50:35;3.20;99.90
64689;DHT22;62504;46.070;14.492;2023-01-19T14:53:04;3.20;99.90
64689;DHT22;62504;46.070;14.492;2023-01-19T14:58:11;3.20;99.90
64689;DHT22;62504;46.070;14.492;2023-01-19T15:00:38;3.10;99.90
64689;DHT22;62504;46.070;14.492;2023-01-19T15:03:03;3.10;99.90
64689;DHT22;62504;46.070;14.492;2023-01-19T15:05:31;3.30;99.90
64689;DHT22;62504;46.070;14.492;2023-01-19T15:07:56;3.10;99.90
64689;DHT22;62504;46.070;14.492;2023-01-19T15:10:23;3.10;99.90
64689;DHT22;62504;46.070;14.492;2023-01-19T15:12:50;3.20;99.90
64689;DHT22;62504;46.070;14.492;2023-01-19T15:15:20;3.30;99.90
64689;DHT22;62504;46.070;14.492;2023-01-19T15:17:48;3.30;99.90
64689;DHT22;62504;46.070;14.492;2023-01-19T15:20:19;3.40;99.90
64689;DHT22;62504;46.070;14.492;2023-01-19T15:22:45;3.40;99.90
64689;DHT22;62504;46.070;14.492;2023-01-19T15:25:15;3.50;99.90
64689;DHT22;62504;46.070;14.492;2023-01-19T15:27:42;3.60;99.90
64689;DHT22;62504;46.070;14.492;2023-01-19T15:30:20;3.60;99.90
64689;DHT22;62504;46.070;14.492;2023-01-19T15:32:46;3.60;99.90
64689;DHT22;62504;46.070;14.492;2023-01-19T15:35:20;3.50;99.90
64689;DHT22;62504;46.070;14.492;2023-01-19T15:37:46;3.50;99.90
64689;DHT22;62504;46.070;14.492;2023-01-19T15:40:13;3.50;99.90
64689;DHT22;62504;46.070;14.492;2023-01-19T15:42:39;3.60;99.90
64689;DHT22;62504;46.070;14.492;2023-01-19T15:45:37;3.60;99.90
64689;DHT22;62504;46.070;14.492;2023-01-19T15:48:12;3.70;99.90
64689;DHT22;62504;46.070;14.492;2023-01-19T15:50:40;3.60;99.90
64689;DHT22;62504;46.070;14.492;2023-01-19T15:53:14;3.70;99.90
64689;DHT22;62504;46.070;14.492;2023-01-19T15:55:41;3.50;99.90
64689;DHT22;62504;46.070;14.492;2023-01-19T15:58:06;3.50;99.90
64689;DHT22;62504;46.070;14.492;2023-01-19T16:00:33;3.30;99.90
64689;DHT22;62504;46.070;14.492;2023-01-19T16:03:00;3.30;99.90
64689;DHT22;62504;46.070;14.492;2023-01-19T16:05:26;3.20;99.90
64689;DHT22;62504;46.070;14.492;2023-01-19T16:07:52;3.30;99.90
64689;DHT22;62504;46.070;14.492;2023-01-19T16:10:18;3.40;99.90
64689;DHT22;62504;46.070;14.492;2023-01-19T16:12:44;3.40;99.90
64689;DHT22;62504;46.070;14.492;2023-01-19T16:15:11;3.50;99.90
64689;DHT22;62504;46.070;14.492;2023-01-19T16:17:36;3.60;99.90
64689;DHT22;62504;46.070;14.492;2023-01-19T16:20:03;3.50;99.90
64689;DHT22;62504;46.070;14.492;2023-01-19T16:22:29;3.40;99.90
64689;DHT22;62504;46.070;14.492;2023-01-19T16:24:55;3.40;99.90
64689;DHT22;62504;46.070;14.492;2023-01-19T16:27:24;3.40;99.90
64689;DHT22;62504;46.070;14.492;2023-01-19T16:29:50;3.40;99.90
64689;DHT22;62504;46.070;14.492;2023-01-19T16:32:15;3.40;99.90
64689;DHT22;62504;46.070;14.492;2023-01-19T16:34:41;3.30;99.90
64689;DHT22;62504;46.070;14.492;2023-01-19T16:37:07;3.30;99.90
64689;DHT22;62504;46.070;14.492;2023-01-19T16:39:32;3.30;99.90
64689;DHT22;62504;46.070;14.492;2023-01-19T16:41:58;3.40;99.90
64689;DHT22;62504;46.070;14.492;2023-01-19T16:44:23;3.40;99.90
64689;DHT22;62504;46.070;14.492;2023-01-19T16:46:49;3.40;99.90
64689;DHT22;62504;46.070;14.492;2023-01-19T16:49:23;3.40;99.90
64689;DHT22;62504;46.070;14.492;2023-01-19T16:51:50;3.40;99.90
64689;DHT22;62504;46.070;14.492;2023-01-19T16:54:21;3.30;99.90
64689;DHT22;62504;46.070;14.492;2023-01-19T16:56:48;3.40;99.90
64689;DHT22;62504;46.070;14.492;2023-01-19T16:59:15;3.40;99.90
64689;DHT22;62504;46.070;14.492;2023-01-19T17:01:41;3.40;99.90
64689;DHT22;62504;46.070;14.492;2023-01-19T17:04:12;3.40;99.90
64689;DHT22;62504;46.070;14.492;2023-01-19T17:06:38;3.40;99.90
64689;DHT22;62504;46.070;14.492;2023-01-19T17:09:04;3.10;99.90
64689;DHT22;62504;46.070;14.492;2023-01-19T17:11:34;2.80;99.90
64689;DHT22;62504;46.070;14.492;2023-01-19T17:14:04;2.80;99.90
64689;DHT22;62504;46.070;14.492;2023-01-19T17:16:32;3.00;99.90
64689;DHT22;62504;46.070;14.492;2023-01-19T17:19:00;3.10;99.90
64689;DHT22;62504;46.070;14.492;2023-01-19T17:21:26;3.20;99.90
64689;DHT22;62504;46.070;14.492;2023-01-19T17:23:53;3.10;99.90
64689;DHT22;62504;46.070;14.492;2023-01-19T17:26:19;3.20;99.90
64689;DHT22;62504;46.070;14.492;2023-01-19T17:28:45;3.30;99.90
64689;DHT22;62504;46.070;14.492;2023-01-19T17:31:13;3.20;99.90
64689;DHT22;62504;46.070;14.492;2023-01-19T17:33:43;3.20;99.90
64689;DHT22;62504;46.070;14.492;2023-01-19T17:36:11;3.20;99.90
64689;DHT22;62504;46.070;14.492;2023-01-19T17:38:37;3.10;99.90
64689;DHT22;62504;46.070;14.492;2023-01-19T17:43:36;3.00;99.90
64689;DHT22;62504;46.070;14.492;2023-01-19T17:46:02;3.10;99.90
64689;DHT22;62504;46.070;14.492;2023-01-19T17:48:27;3.10;99.90
64689;DHT22;62504;46.070;14.492;2023-01-19T17:50:53;3.00;99.90
64689;DHT22;62504;46.070;14.492;2023-01-19T17:53:19;3.20;99.90